Terminal Aerodrome Forecast
Issued by NWS

Home | Current Version | Previous Version | Graphics & Text | Print | Product List | Glossary On
Versions: 1 2 3 4 5 6 7 8 9 10 11 12 13 14 15 16 17 18 19 20
000
FTUS43 KGRB 191127
TAFCWA
TAF
KCWA 191127Z 1912/2012 01003KT P6SM SCT006 BKN018
      TEMPO 1912/1916 5SM BR BKN006
     FM191600 30003KT P6SM BKN030
     FM191700 32006KT P6SM BKN050
     FM192100 35012G18KT P6SM BKN050
      TEMPO 1921/2001 2SM -TSRA BKN025CB
     FM200100 01012G18KT P6SM OVC050
     FM200500 03008KT P6SM BKN090=

USA.gov is the U.S. government's official web portal to all federal, state and local government web resources and services.